»·PEaware :: EPIC14 KGEG-KSEA

EPIC14 :: KGEG-KSEA

FLIGHT INFORMATION

Flight Status: Arrived
Operator: Unknown
More flights by this operator :: More flights under this callsign
Pilot: Brandon B. (21937)
Aircraft: BEECH AIRCRAFT T-6A TEXAN
(TEX2)
More flights by this aircraft type
Origin: KGEG Spokane Intl
United States
Destination: KSEA Seattle-Tacoma Intl
United States
More flights between these airports :: More routes between these airports
Route: EPH EPH8
File this flight plan on PilotEdge
Remarks: Rqst Spokane Six departure rwy 21 to EPH
Altitude:
(Current/Filed)
16,000ft
Speed:
(Current/Filed)
240kts
Departed: 10-Sep-21 09:05 AM
Arrived: 10-Sep-21 10:02 AM
Distance/Time
Traveled:
194nm/0:56
Distance/Time
To Go:
Arrived

Flight Plot

Page will automatically refresh every two minutes.

Flight plan parsing failed; only flown route is shown


Map Options




Map Legend


Flown Route
Filed Route
Departure Airport
Arrival Airport
Navaid (VOR, NDB)
Fix

Horizontal Profiles

Position Reports

Time Latitude Longitude Heading Altitude Ground
Speed
10-Sep-21 08:51 47.631477 -117.521876 46 2388ft 0kts
10-Sep-21 08:52 47.631479 -117.521874 46 2388ft 0kts
10-Sep-21 08:53 47.631480 -117.521872 46 2388ft 0kts
10-Sep-21 08:54 47.631481 -117.521870 46 2388ft 0kts
10-Sep-21 08:55 47.631482 -117.521868 46 2388ft 0kts
10-Sep-21 08:56 47.631484 -117.521866 46 2388ft 0kts
10-Sep-21 08:57 47.631485 -117.521864 46 2388ft 0kts
10-Sep-21 08:58 47.631486 -117.521862 46 2388ft 0kts
10-Sep-21 08:59 47.631488 -117.521860 46 2388ft 0kts
10-Sep-21 09:00 47.631572 -117.521732 44 2388ft 9kts
10-Sep-21 09:01 47.631586 -117.519411 129 2388ft 0kts
10-Sep-21 09:02 47.631584 -117.519409 129 2388ft 0kts
10-Sep-21 09:03 47.631119 -117.518720 166 2388ft 4kts
10-Sep-21 09:04 47.630237 -117.519807 226 2388ft 48kts
10-Sep-21 09:05 47.604443 -117.561941 232 3784ft 169kts
10-Sep-21 09:06 47.570150 -117.615511 229 6281ft 181kts
10-Sep-21 09:07 47.547591 -117.677348 271 8380ft 197kts
10-Sep-21 09:08 47.545296 -117.751549 267 11135ft 177kts
10-Sep-21 09:09 47.538846 -117.828061 267 13157ft 186kts
10-Sep-21 09:10 47.531517 -117.907616 257 14855ft 199kts
10-Sep-21 09:11 47.516610 -117.989984 254 15924ft 227kts
10-Sep-21 09:12 47.494418 -118.084621 250 16073ft 257kts
10-Sep-21 09:13 47.467818 -118.184931 257 16053ft 269kts
10-Sep-21 09:14 47.463864 -118.294911 270 16159ft 266kts
10-Sep-21 09:15 47.459177 -118.404586 263 16118ft 270kts
10-Sep-21 09:16 47.443842 -118.513816 256 16048ft 272kts
10-Sep-21 09:17 47.431082 -118.622814 266 16125ft 269kts
10-Sep-21 09:18 47.428071 -118.733276 274 16045ft 272kts
10-Sep-21 09:19 47.438058 -118.843208 279 16048ft 271kts
10-Sep-21 09:20 47.426217 -118.952364 255 15952ft 272kts
10-Sep-21 09:21 47.412247 -119.061173 275 15844ft 275kts
10-Sep-21 09:22 47.403172 -119.170002 250 15931ft 272kts
10-Sep-21 09:23 47.384852 -119.276484 260 15954ft 272kts
10-Sep-21 09:24 47.377518 -119.386263 278 16010ft 271kts
10-Sep-21 09:25 47.391961 -119.493084 280 16257ft 267kts
10-Sep-21 09:26 47.411202 -119.599259 286 16243ft 273kts
10-Sep-21 09:27 47.433609 -119.705738 286 16175ft 275kts
10-Sep-21 09:28 47.453849 -119.814837 284 15979ft 276kts
10-Sep-21 09:29 47.475896 -119.922483 288 16004ft 271kts
10-Sep-21 09:30 47.501212 -120.028297 288 15924ft 272kts
10-Sep-21 09:31 47.526984 -120.132955 289 15975ft 271kts
10-Sep-21 09:32 47.557535 -120.236443 285 16016ft 266kts
10-Sep-21 09:33 47.574778 -120.344939 279 15849ft 271kts
10-Sep-21 09:34 47.588866 -120.454670 279 15831ft 272kts
10-Sep-21 09:35 47.598225 -120.564222 274 15958ft 270kts
10-Sep-21 09:36 47.611030 -120.674167 283 15939ft 270kts
10-Sep-21 09:37 47.639350 -120.777392 291 16009ft 269kts
10-Sep-21 09:38 47.669273 -120.878855 292 16212ft 267kts
10-Sep-21 09:39 47.698274 -120.982620 285 15937ft 275kts
10-Sep-21 09:40 47.717854 -121.091690 282 15821ft 277kts
10-Sep-21 09:41 47.728546 -121.201837 276 14793ft 275kts
10-Sep-21 09:42 47.739017 -121.310613 279 12184ft 262kts
10-Sep-21 09:43 47.750620 -121.414015 276 10018ft 250kts
10-Sep-21 09:44 47.765364 -121.512053 285 9928ft 243kts
10-Sep-21 09:45 47.787770 -121.605588 288 9952ft 238kts
10-Sep-21 09:46 47.806961 -121.699201 282 9912ft 238kts
10-Sep-21 09:47 47.807001 -121.791966 233 10213ft 238kts
10-Sep-21 09:48 47.752805 -121.855273 225 10023ft 245kts
10-Sep-21 09:49 47.727211 -121.938918 275 9035ft 213kts
10-Sep-21 09:50 47.730425 -122.016961 255 6813ft 206kts
10-Sep-21 09:51 47.727395 -122.033280 258 6164ft 212kts
10-Sep-21 09:52 47.713435 -122.111299 255 4572ft 208kts
10-Sep-21 09:53 47.705838 -122.147494 254 3979ft 180kts
10-Sep-21 09:54 47.692540 -122.218724 258 3929ft 170kts
10-Sep-21 09:55 47.672352 -122.280686 208 3840ft 175kts
10-Sep-21 09:56 47.630526 -122.311627 205 3926ft 169kts
10-Sep-21 09:57 47.583258 -122.315427 187 3158ft 165kts
10-Sep-21 09:58 47.542781 -122.318739 176 1998ft 127kts
10-Sep-21 09:59 47.509120 -122.318378 182 1287ft 117kts
10-Sep-21 10:00 47.477690 -122.317961 179 763ft 113kts
10-Sep-21 10:01 47.451213 -122.318067 182 436ft 38kts

Navigation Log

Ident Type
Flight plan parsing failed, navigation log unavailable